createdAt,value
2018-11-05T00:01:04.390Z,21.70
2018-11-05T00:03:33.188Z,23.67
2018-11-05T00:06:02.529Z,26.27
2018-11-05T00:08:31.417Z,24.10
2018-11-05T00:11:00.322Z,21.33
2018-11-05T00:13:29.212Z,24.93
2018-11-05T00:15:58.025Z,27.17
2018-11-05T00:18:26.818Z,27.37
2018-11-05T00:20:55.585Z,26.93
2018-11-05T00:23:24.375Z,24.03
2018-11-05T00:25:53.205Z,26.90
2018-11-05T00:28:21.992Z,25.07
2018-11-05T00:30:51.106Z,25.70
2018-11-05T00:33:19.923Z,25.40
2018-11-05T00:35:48.768Z,23.30
2018-11-05T00:38:17.590Z,28.10
2018-11-05T00:40:46.409Z,24.87
2018-11-05T00:43:15.215Z,23.40
2018-11-05T00:45:44.107Z,26.27
2018-11-05T00:48:12.852Z,28.20
2018-11-05T00:50:41.772Z,29.63
2018-11-05T00:53:10.580Z,25.40
2018-11-05T00:55:39.484Z,28.83
2018-11-05T00:58:08.359Z,28.60
2018-11-05T01:00:37.319Z,27.63
2018-11-05T01:03:06.272Z,31.07
2018-11-05T01:05:35.158Z,26.47
2018-11-05T01:08:04.537Z,27.20
2018-11-05T01:10:33.366Z,30.83
2018-11-05T01:13:02.229Z,28.33
2018-11-05T01:15:31.055Z,26.13
2018-11-05T01:17:59.838Z,28.20
2018-11-05T01:20:28.721Z,27.17
2018-11-05T01:22:57.552Z,31.43
2018-11-05T01:25:26.438Z,31.13
2018-11-05T01:27:55.228Z,27.20
2018-11-05T01:30:24.048Z,27.90
2018-11-05T01:32:52.863Z,29.70
2018-11-05T01:35:21.712Z,29.90
2018-11-05T01:37:50.520Z,29.87
2018-11-05T01:40:19.473Z,29.03
2018-11-05T01:42:48.252Z,30.90
2018-11-05T01:45:17.045Z,29.93
2018-11-05T01:47:45.855Z,31.33
2018-11-05T01:50:16.011Z,28.63
2018-11-05T01:52:45.119Z,28.63
2018-11-05T01:55:13.944Z,35.37
2018-11-05T01:57:42.839Z,31.97
2018-11-05T02:00:13.486Z,30.73
2018-11-05T02:02:42.465Z,28.13
2018-11-05T02:05:11.589Z,33.70
2018-11-05T02:07:41.950Z,29.90
2018-11-05T02:10:13.241Z,34.73
2018-11-05T02:12:42.041Z,30.73
2018-11-05T02:15:11.329Z,29.60
2018-11-05T02:17:41.225Z,32.33
2018-11-05T02:20:10.223Z,29.23
2018-11-05T02:22:39.365Z,30.17
2018-11-05T02:25:09.035Z,31.37
2018-11-05T02:27:37.888Z,29.50
2018-11-05T02:30:09.687Z,30.40
2018-11-05T02:32:38.492Z,33.07
2018-11-05T02:35:08.448Z,28.40
2018-11-05T02:37:37.332Z,30.03
2018-11-05T02:40:08.918Z,27.87
2018-11-05T02:42:37.822Z,29.63
2018-11-05T02:45:07.586Z,28.00
2018-11-05T02:47:36.609Z,34.10
2018-11-05T02:50:06.137Z,34.83
2018-11-05T02:52:34.952Z,32.23
2018-11-05T02:55:03.926Z,35.90
2018-11-05T02:57:32.840Z,34.70
2018-11-05T03:00:01.669Z,32.63
2018-11-05T03:02:36.657Z,35.17
2018-11-05T03:05:06.960Z,43.50
2018-11-05T03:07:35.772Z,35.43
2018-11-05T03:10:05.731Z,31.13
2018-11-05T03:12:34.569Z,34.13
2018-11-05T03:15:03.478Z,32.40
2018-11-05T03:17:32.279Z,33.57
2018-11-05T03:20:01.527Z,36.67
2018-11-05T03:22:30.589Z,33.20
2018-11-05T03:24:59.400Z,34.10
2018-11-05T03:27:28.237Z,33.83
2018-11-05T03:29:57.051Z,29.73
2018-11-05T03:32:25.845Z,30.20
2018-11-05T03:34:54.645Z,33.57
2018-11-05T03:37:23.833Z,30.20
2018-11-05T03:39:52.822Z,30.67
2018-11-05T03:42:21.661Z,32.37
2018-11-05T03:44:50.479Z,30.30
2018-11-05T03:47:19.267Z,30.67
2018-11-05T03:49:48.149Z,29.23
2018-11-05T03:52:16.887Z,38.20
2018-11-05T03:54:45.670Z,30.63
2018-11-05T03:57:14.472Z,30.33
2018-11-05T03:59:43.289Z,31.00
2018-11-05T04:02:12.092Z,31.33
2018-11-05T04:04:40.926Z,35.70
2018-11-05T04:07:09.765Z,33.73
2018-11-05T04:09:38.588Z,32.23
2018-11-05T04:12:07.458Z,30.87
2018-11-05T04:14:36.292Z,34.87
2018-11-05T04:17:05.375Z,31.93
2018-11-05T04:19:34.197Z,28.67
2018-11-05T04:22:03.032Z,30.00
2018-11-05T04:24:31.827Z,30.00
2018-11-05T04:27:01.182Z,33.33
2018-11-05T04:29:30.536Z,28.80
2018-11-05T04:31:59.939Z,31.07
2018-11-05T04:34:28.838Z,30.57
2018-11-05T04:36:59.065Z,30.83
2018-11-05T04:39:28.413Z,32.17
2018-11-05T04:42:01.549Z,33.70
2018-11-05T04:44:30.319Z,30.43
2018-11-05T04:46:59.180Z,29.07
2018-11-05T04:49:27.943Z,32.07
2018-11-05T04:51:56.730Z,30.63
2018-11-05T04:54:25.494Z,33.30
2018-11-05T04:56:54.367Z,32.73
2018-11-05T04:59:23.115Z,33.17
2018-11-05T05:01:51.859Z,28.60
2018-11-05T05:04:20.712Z,34.30
2018-11-05T05:06:49.428Z,33.57
2018-11-05T05:09:18.170Z,32.63
2018-11-05T05:11:46.955Z,34.73
2018-11-05T05:14:15.738Z,33.90
2018-11-05T05:16:44.501Z,33.63
2018-11-05T05:19:13.236Z,31.40
2018-11-05T05:21:42.034Z,28.93
2018-11-05T05:24:12.009Z,32.03
2018-11-05T05:26:40.836Z,30.80
2018-11-05T05:29:09.803Z,32.37
2018-11-05T05:31:38.723Z,33.17
2018-11-05T05:34:07.820Z,31.63
2018-11-05T05:36:36.629Z,31.97
2018-11-05T05:39:07.519Z,29.17
2018-11-05T05:41:36.344Z,30.80
2018-11-05T05:44:05.187Z,31.40
2018-11-05T05:46:33.928Z,32.87
2018-11-05T05:49:02.741Z,31.43
2018-11-05T05:51:31.502Z,33.30
2018-11-05T05:54:00.435Z,33.70
2018-11-05T05:56:29.256Z,36.47
2018-11-05T05:58:58.080Z,37.20
2018-11-05T06:01:26.944Z,30.73
2018-11-05T06:03:56.885Z,36.33
2018-11-05T06:06:25.657Z,34.77
2018-11-05T06:08:54.442Z,28.20
2018-11-05T06:11:23.252Z,36.23
2018-11-05T06:13:52.024Z,32.00
2018-11-05T06:16:20.807Z,32.20
2018-11-05T06:18:49.538Z,36.33
2018-11-05T06:21:18.398Z,36.83
2018-11-05T06:23:47.264Z,28.43
2018-11-05T06:26:16.059Z,30.13
2018-11-05T06:28:44.845Z,32.80
2018-11-05T06:31:13.633Z,29.43
2018-11-05T06:33:42.390Z,32.03
2018-11-05T06:36:11.168Z,35.10
2018-11-05T06:38:40.039Z,28.70
2018-11-05T06:41:08.985Z,33.17
2018-11-05T06:43:37.738Z,31.37
2018-11-05T06:46:06.640Z,32.67
2018-11-05T06:48:35.395Z,32.37
2018-11-05T06:51:04.155Z,31.93
2018-11-05T06:53:32.869Z,34.03
2018-11-05T06:56:01.618Z,30.13
2018-11-05T06:58:30.399Z,28.03
2018-11-05T07:00:59.189Z,34.77
2018-11-05T07:03:27.987Z,32.67
2018-11-05T07:05:56.992Z,36.87
2018-11-05T07:08:25.756Z,36.33
2018-11-05T07:10:54.555Z,36.40
2018-11-05T07:13:23.391Z,37.90
2018-11-05T07:15:52.175Z,42.03
2018-11-05T07:18:21.005Z,41.17
2018-11-05T07:20:49.742Z,30.97
2018-11-05T07:23:18.462Z,39.77
2018-11-05T07:25:47.220Z,38.37
2018-11-05T07:28:15.948Z,35.77
2018-11-05T07:30:44.743Z,34.33
2018-11-05T07:33:13.570Z,32.90
2018-11-05T07:35:42.369Z,35.60
2018-11-05T07:38:11.188Z,34.90
2018-11-05T07:40:40.049Z,34.10
2018-11-05T07:43:08.830Z,37.47
2018-11-05T07:45:37.595Z,41.77
2018-11-05T07:48:06.679Z,38.73
2018-11-05T07:50:35.471Z,32.70
2018-11-05T07:53:04.255Z,39.50
2018-11-05T07:55:33.036Z,34.80
2018-11-05T07:58:01.798Z,35.60
2018-11-05T08:00:35.717Z,38.23
2018-11-05T08:03:04.519Z,32.00
2018-11-05T08:05:33.312Z,38.40
2018-11-05T08:08:02.065Z,31.17
2018-11-05T08:10:30.901Z,32.43
2018-11-05T08:12:59.662Z,38.50
2018-11-05T08:15:28.471Z,33.30
2018-11-05T08:17:57.454Z,26.90
2018-11-05T08:20:26.242Z,25.63
2018-11-05T08:22:55.035Z,24.50
2018-11-05T08:25:23.770Z,20.77
2018-11-05T08:27:52.551Z,20.30
2018-11-05T08:30:22.546Z,19.90
2018-11-05T08:32:51.339Z,19.67
2018-11-05T08:35:21.047Z,18.20
2018-11-05T08:37:50.307Z,18.43
2018-11-05T08:40:23.665Z,20.07
2018-11-05T08:42:53.140Z,19.20
2018-11-05T08:45:23.234Z,20.23
2018-11-05T08:47:51.988Z,17.30
2018-11-05T08:50:22.046Z,19.37
2018-11-05T08:52:50.715Z,19.07
2018-11-05T08:55:23.751Z,17.07
2018-11-05T08:57:52.488Z,20.83
2018-11-05T09:00:26.356Z,20.20
2018-11-05T09:02:55.595Z,19.10
2018-11-05T09:05:24.561Z,19.80
2018-11-05T09:07:54.141Z,20.03
2018-11-05T09:10:23.061Z,22.63
2018-11-05T09:12:51.748Z,21.37
2018-11-05T09:15:21.401Z,19.13
2018-11-05T09:17:50.369Z,19.90
2018-11-05T09:20:19.750Z,18.07
2018-11-05T09:22:49.227Z,19.47
2018-11-05T09:25:18.222Z,21.30
2018-11-05T09:27:47.102Z,19.93
2018-11-05T09:30:20.231Z,17.83
2018-11-05T09:32:49.000Z,19.57
2018-11-05T09:35:17.904Z,16.93
2018-11-05T09:37:46.751Z,12.03
2018-11-05T09:40:17.380Z,14.50
2018-11-05T09:42:46.738Z,14.03
2018-11-05T09:45:17.799Z,11.40
2018-11-05T09:47:47.054Z,11.10
2018-11-05T09:50:16.164Z,12.37
2018-11-05T09:52:44.898Z,11.77
2018-11-05T09:55:14.183Z,9.73
2018-11-05T09:57:43.218Z,11.40
2018-11-05T10:00:14.507Z,13.77
2018-11-05T10:02:48.446Z,11.47
2018-11-05T10:05:17.558Z,11.03
2018-11-05T10:07:46.507Z,10.50
2018-11-05T10:10:16.111Z,10.13
2018-11-05T10:12:44.979Z,12.03
2018-11-05T10:15:14.773Z,13.00
2018-11-05T10:17:43.526Z,14.23
2018-11-05T10:20:16.572Z,17.07
2018-11-05T10:22:45.711Z,11.27
2018-11-05T10:25:14.995Z,12.37
2018-11-05T10:27:43.813Z,13.37
2018-11-05T10:30:14.845Z,15.10
2018-11-05T10:32:44.120Z,10.33
2018-11-05T10:35:13.663Z,9.80
2018-11-05T10:37:42.450Z,10.30
2018-11-05T10:40:14.111Z,11.00
2018-11-05T10:42:43.711Z,11.37
2018-11-05T10:45:13.793Z,10.30
2018-11-05T10:47:42.623Z,10.60
2018-11-05T10:50:12.946Z,12.30
2018-11-05T10:52:42.197Z,13.10
2018-11-05T10:55:11.027Z,8.40
2018-11-05T10:57:40.468Z,12.17
2018-11-05T11:00:17.457Z,10.07
2018-11-05T11:03:19.209Z,10.90
2018-11-05T11:05:48.031Z,9.90
2018-11-05T11:08:16.850Z,9.30
2018-11-05T11:10:46.504Z,10.57
2018-11-05T11:13:15.360Z,9.87
2018-11-05T11:15:44.140Z,11.07
2018-11-05T11:18:12.952Z,10.53
2018-11-05T11:20:41.728Z,10.10
2018-11-05T11:23:10.561Z,15.43
2018-11-05T11:25:39.325Z,8.43
2018-11-05T11:28:08.375Z,9.73
2018-11-05T11:30:37.181Z,12.83
2018-11-05T11:33:06.239Z,10.83
2018-11-05T11:35:35.087Z,9.17
2018-11-05T11:38:03.971Z,10.07
2018-11-05T11:40:32.718Z,10.23
2018-11-05T11:43:01.526Z,10.67
2018-11-05T11:45:30.300Z,10.50
2018-11-05T11:47:59.110Z,8.83
2018-11-05T11:50:27.909Z,12.83
2018-11-05T11:52:56.729Z,12.37
2018-11-05T11:55:25.456Z,11.10
2018-11-05T11:57:54.240Z,8.77
2018-11-05T12:00:24.308Z,9.93
2018-11-05T12:02:53.709Z,8.33
2018-11-05T12:05:22.883Z,16.93
2018-11-05T12:07:51.591Z,11.73
2018-11-05T12:10:22.173Z,11.67
2018-11-05T12:12:51.026Z,8.67
2018-11-05T12:15:20.498Z,8.97
2018-11-05T12:17:50.304Z,9.90
2018-11-05T12:20:20.354Z,8.47
2018-11-05T12:22:49.605Z,9.13
2018-11-05T12:25:18.492Z,7.80
2018-11-05T12:27:47.339Z,8.33
2018-11-05T12:30:18.058Z,8.57
2018-11-05T12:32:47.590Z,9.03
2018-11-05T12:35:16.411Z,8.40
2018-11-05T12:37:46.350Z,9.47
2018-11-05T12:40:16.288Z,7.93
2018-11-05T12:42:46.291Z,9.07
2018-11-05T12:45:15.128Z,8.83
2018-11-05T12:47:43.924Z,8.57
2018-11-05T12:50:18.178Z,7.47
2018-11-05T12:52:47.771Z,7.70
2018-11-05T12:55:16.760Z,8.57
2018-11-05T12:57:45.733Z,8.27
2018-11-05T13:00:18.448Z,8.70
2018-11-05T13:02:53.716Z,10.20
2018-11-05T13:05:23.083Z,11.10
2018-11-05T13:07:51.993Z,6.83
2018-11-05T13:10:20.885Z,7.73
2018-11-05T13:12:49.748Z,7.80
2018-11-05T13:15:18.634Z,11.00
2018-11-05T13:17:47.328Z,9.27
2018-11-05T13:20:18.138Z,6.90
2018-11-05T13:22:47.232Z,9.23
2018-11-05T13:25:16.088Z,6.33
2018-11-05T13:27:46.200Z,10.07
2018-11-05T13:30:15.525Z,9.17
2018-11-05T13:32:44.686Z,11.40
2018-11-05T13:35:14.815Z,15.57
2018-11-05T13:37:44.237Z,9.00
2018-11-05T13:40:14.647Z,9.80
2018-11-05T13:42:43.823Z,8.53
2018-11-05T13:45:13.686Z,9.43
2018-11-05T13:47:43.183Z,8.20
2018-11-05T13:50:12.434Z,7.03
2018-11-05T13:52:41.365Z,6.93
2018-11-05T13:55:12.259Z,9.83
2018-11-05T13:57:41.797Z,7.70
2018-11-05T14:00:12.810Z,6.97
2018-11-05T14:02:41.587Z,5.77
2018-11-05T14:05:11.029Z,7.23
2018-11-05T14:07:39.992Z,5.90
2018-11-05T14:10:12.840Z,6.80
2018-11-05T14:12:42.456Z,7.43
2018-11-05T14:15:11.278Z,8.17
2018-11-05T14:17:40.775Z,8.60
2018-11-05T14:20:10.636Z,7.80
2018-11-05T14:22:39.439Z,6.63
2018-11-05T14:25:10.112Z,7.63
2018-11-05T14:27:39.250Z,7.50
2018-11-05T14:30:09.200Z,7.17
2018-11-05T14:32:38.067Z,7.47
2018-11-05T14:35:09.496Z,9.07
2018-11-05T14:37:45.929Z,6.57
2018-11-05T14:40:18.149Z,13.20
2018-11-05T14:42:48.916Z,7.57
2018-11-05T14:45:18.908Z,9.43
2018-11-05T14:47:48.180Z,8.23
2018-11-05T14:50:18.469Z,7.30
2018-11-05T14:52:47.307Z,7.77
2018-11-05T14:55:17.378Z,9.00
2018-11-05T14:57:47.244Z,8.10
2018-11-05T15:00:18.083Z,7.20
2018-11-05T15:02:47.795Z,6.97
2018-11-05T15:05:16.801Z,8.03
2018-11-05T15:07:46.605Z,7.83
2018-11-05T15:10:16.584Z,7.80
2018-11-05T15:12:45.625Z,9.47
2018-11-05T15:15:15.011Z,7.63
2018-11-05T15:17:44.461Z,8.87
2018-11-05T15:20:15.081Z,7.13
2018-11-05T15:22:44.795Z,10.40
2018-11-05T15:25:14.168Z,6.70
2018-11-05T15:27:43.227Z,7.37
2018-11-05T15:30:15.054Z,8.60
2018-11-05T15:32:44.101Z,6.50
2018-11-05T15:35:13.031Z,7.87
2018-11-05T15:37:42.399Z,9.13
2018-11-05T15:40:13.085Z,9.90
2018-11-05T15:42:41.902Z,10.77
2018-11-05T15:45:12.181Z,12.40
2018-11-05T15:47:41.295Z,10.87
2018-11-05T15:50:11.979Z,10.17
2018-11-05T15:52:40.995Z,14.03
2018-11-05T15:55:09.758Z,12.77
2018-11-05T15:57:39.036Z,16.63
2018-11-05T16:00:16.301Z,12.00
2018-11-05T16:02:46.679Z,13.40
2018-11-05T16:05:15.506Z,16.40
2018-11-05T16:07:44.509Z,14.70
2018-11-05T16:10:13.326Z,19.53
2018-11-05T16:12:42.166Z,16.27
2018-11-05T16:15:12.363Z,18.13
2018-11-05T16:17:41.247Z,17.57
2018-11-05T16:20:22.971Z,21.70
2018-11-05T16:22:52.320Z,27.10
2018-11-05T16:25:21.288Z,46.73
2018-11-05T16:27:50.126Z,32.93
2018-11-05T16:30:20.285Z,27.23
2018-11-05T16:32:49.549Z,37.13
2018-11-05T16:35:18.452Z,29.90
2018-11-05T16:37:47.215Z,25.43
2018-11-05T16:40:17.202Z,30.70
2018-11-05T16:42:47.217Z,22.67
2018-11-05T16:45:15.978Z,14.60
2018-11-05T16:47:45.050Z,14.23
2018-11-05T16:50:18.761Z,14.30
2018-11-05T16:52:47.499Z,28.00
2018-11-05T16:55:16.384Z,25.90
2018-11-05T16:57:45.464Z,29.33
2018-11-05T17:00:14.864Z,29.67
2018-11-05T17:02:44.348Z,20.90
2018-11-05T17:05:13.067Z,22.37
2018-11-05T17:07:41.830Z,23.70
2018-11-05T17:10:11.872Z,19.90
2018-11-05T17:12:40.949Z,21.80
2018-11-05T17:15:11.537Z,19.97
2018-11-05T17:17:40.776Z,27.03
2018-11-05T17:20:11.362Z,37.10
2018-11-05T17:22:40.626Z,29.17
2018-11-05T17:25:09.796Z,34.00
2018-11-05T17:27:38.846Z,38.67
2018-11-05T17:30:12.871Z,25.80
2018-11-05T17:32:42.272Z,24.50
2018-11-05T17:35:11.784Z,18.83
2018-11-05T17:37:40.753Z,21.77
2018-11-05T17:40:11.717Z,21.57
2018-11-05T17:42:40.717Z,22.67
2018-11-05T17:45:10.959Z,22.13
2018-11-05T17:47:39.980Z,17.67
2018-11-05T17:50:11.315Z,16.70
2018-11-05T17:52:40.363Z,17.07
2018-11-05T17:55:10.079Z,37.67
2018-11-05T17:57:39.066Z,20.60
2018-11-05T18:00:10.304Z,20.63
2018-11-05T18:02:39.124Z,20.37
2018-11-05T18:05:08.036Z,20.23
2018-11-05T18:07:36.900Z,19.67
2018-11-05T18:10:06.800Z,20.47
2018-11-05T18:12:35.712Z,20.70
2018-11-05T18:15:05.799Z,18.43
2018-11-05T18:17:34.751Z,23.00
2018-11-05T18:20:04.154Z,17.97
2018-11-05T18:22:32.980Z,22.23
2018-11-05T18:25:01.874Z,21.63
2018-11-05T18:27:30.895Z,23.67
2018-11-05T18:29:59.945Z,22.03
2018-11-05T18:32:28.676Z,20.97
2018-11-05T18:34:58.513Z,17.70
2018-11-05T18:37:27.387Z,22.20
2018-11-05T18:39:56.322Z,22.00
2018-11-05T18:42:25.223Z,27.70
2018-11-05T18:44:54.031Z,22.00
2018-11-05T18:47:22.914Z,25.57
2018-11-05T18:49:52.016Z,24.07
2018-11-05T18:52:20.997Z,21.00
2018-11-05T18:54:50.060Z,30.10
2018-11-05T18:57:18.890Z,33.13
2018-11-05T18:59:47.899Z,27.20
2018-11-05T19:02:34.720Z,25.90
2018-11-05T19:05:05.472Z,40.23
2018-11-05T19:07:34.919Z,32.57
2018-11-05T19:10:05.545Z,39.67
2018-11-05T19:12:35.044Z,33.97
2018-11-05T19:15:04.045Z,36.43
2018-11-05T19:17:32.832Z,31.03
2018-11-05T19:20:01.756Z,30.77
2018-11-05T19:22:30.602Z,30.87
2018-11-05T19:24:59.384Z,27.57
2018-11-05T19:27:28.125Z,24.83
2018-11-05T19:29:56.964Z,37.23
2018-11-05T19:32:25.707Z,38.50
2018-11-05T19:34:54.498Z,25.60
2018-11-05T19:37:23.354Z,32.63
2018-11-05T19:39:54.612Z,27.57
2018-11-05T19:42:21.184Z,26.37
2018-11-05T19:44:50.607Z,24.40
2018-11-05T19:47:19.360Z,22.27
2018-11-05T19:49:48.226Z,21.30
2018-11-05T19:52:16.964Z,21.60
2018-11-05T19:54:45.791Z,24.30
2018-11-05T19:57:14.641Z,21.67
2018-11-05T19:59:43.539Z,21.50
2018-11-05T20:02:12.334Z,21.07
2018-11-05T20:04:41.976Z,19.27
2018-11-05T20:07:10.750Z,18.00
2018-11-05T20:09:39.511Z,19.47
2018-11-05T20:12:08.376Z,21.57
2018-11-05T20:14:41.558Z,23.30
2018-11-05T20:17:10.945Z,24.43
2018-11-05T20:19:39.757Z,20.50
2018-11-05T20:22:08.555Z,23.63
2018-11-05T20:24:37.356Z,19.93
2018-11-05T20:27:06.107Z,23.47
2018-11-05T20:29:34.998Z,21.07
2018-11-05T20:32:03.842Z,19.90
2018-11-05T20:34:32.849Z,24.10
2018-11-05T20:37:01.493Z,23.40
2018-11-05T20:39:30.289Z,22.00
2018-11-05T20:41:59.070Z,19.73
2018-11-05T20:44:27.832Z,18.27
2018-11-05T20:46:56.908Z,20.53
2018-11-05T20:49:25.679Z,18.90
2018-11-05T20:51:54.579Z,19.40
2018-11-05T20:54:23.363Z,19.30
2018-11-05T20:56:52.151Z,31.43
2018-11-05T20:59:20.896Z,26.30
2018-11-05T21:01:49.694Z,32.60
2018-11-05T21:04:18.476Z,24.73
2018-11-05T21:06:47.280Z,25.70
2018-11-05T21:09:16.296Z,23.93
2018-11-05T21:11:45.180Z,27.00
2018-11-05T21:14:13.960Z,38.87
2018-11-05T21:16:42.776Z,37.40
2018-11-05T21:19:11.569Z,27.37
2018-11-05T21:21:40.595Z,21.47
2018-11-05T21:24:09.303Z,19.40
2018-11-05T21:26:38.127Z,22.37
2018-11-05T21:29:07.039Z,19.50
2018-11-05T21:31:35.846Z,24.20
2018-11-05T21:34:04.941Z,18.13
2018-11-05T21:36:34.555Z,18.47
2018-11-05T21:39:03.491Z,17.33
2018-11-05T21:41:32.355Z,19.43
2018-11-05T21:44:01.152Z,22.43
2018-11-05T21:46:30.030Z,22.43
2018-11-05T21:48:58.890Z,18.93
2018-11-05T21:51:27.690Z,17.13
2018-11-05T21:53:56.548Z,18.37
2018-11-05T21:56:25.509Z,20.73
2018-11-05T21:58:54.883Z,17.40
2018-11-05T22:01:24.923Z,20.13
2018-11-05T22:03:53.812Z,18.83
2018-11-05T22:06:22.877Z,21.13
2018-11-05T22:08:51.724Z,17.30
2018-11-05T22:11:20.494Z,17.87
2018-11-05T22:13:49.378Z,20.37
2018-11-05T22:16:18.177Z,19.63
2018-11-05T22:18:46.985Z,22.17
2018-11-05T22:21:15.716Z,19.20
2018-11-05T22:23:44.503Z,23.23
2018-11-05T22:26:13.221Z,22.40
2018-11-05T22:28:41.980Z,18.87
2018-11-05T22:31:10.767Z,21.57
2018-11-05T22:33:39.717Z,20.40
2018-11-05T22:36:09.403Z,19.47
2018-11-05T22:38:38.158Z,20.60
2018-11-05T22:41:07.146Z,22.47
2018-11-05T22:43:35.892Z,18.80
2018-11-05T22:46:04.635Z,19.70
2018-11-05T22:48:33.409Z,17.77
2018-11-05T22:51:02.204Z,17.77
2018-11-05T22:53:31.119Z,19.47
2018-11-05T22:55:59.902Z,17.87
2018-11-05T22:58:28.707Z,21.60
2018-11-05T23:01:03.334Z,18.97
2018-11-05T23:03:32.130Z,24.23
2018-11-05T23:06:01.075Z,23.17
2018-11-05T23:08:30.038Z,22.50
2018-11-05T23:10:58.935Z,24.30
2018-11-05T23:13:27.764Z,67.27
2018-11-05T23:15:56.512Z,30.23
2018-11-05T23:18:25.292Z,20.77
2018-11-05T23:20:54.032Z,20.37
2018-11-05T23:23:22.795Z,28.07
2018-11-05T23:25:51.568Z,25.27
2018-11-05T23:28:20.360Z,27.57
2018-11-05T23:30:49.152Z,22.17
2018-11-05T23:33:17.984Z,21.23
2018-11-05T23:35:46.722Z,23.87
2018-11-05T23:38:15.543Z,22.07
2018-11-05T23:40:44.289Z,19.93
2018-11-05T23:43:13.092Z,19.00
2018-11-05T23:45:41.815Z,18.73
2018-11-05T23:48:10.599Z,24.37
2018-11-05T23:50:39.379Z,27.87
2018-11-05T23:53:08.155Z,28.43
2018-11-05T23:55:36.863Z,38.63
2018-11-05T23:58:05.769Z,31.20
